sensor_id;sensor_type;location;lat;lon;timestamp;temperature;humidity
2729;DHT22;1372;47.956;7.830;2023-12-22T00:01:25;9.70;99.90
2729;DHT22;1372;47.956;7.830;2023-12-22T00:03:54;9.70;99.90
2729;DHT22;1372;47.956;7.830;2023-12-22T00:06:25;9.60;99.90
2729;DHT22;1372;47.956;7.830;2023-12-22T00:08:54;9.60;99.90
2729;DHT22;1372;47.956;7.830;2023-12-22T00:11:24;9.60;99.90
2729;DHT22;1372;47.956;7.830;2023-12-22T00:13:53;9.60;99.90
2729;DHT22;1372;47.956;7.830;2023-12-22T00:16:22;9.60;99.90
2729;DHT22;1372;47.956;7.830;2023-12-22T00:18:50;9.60;99.90
2729;DHT22;1372;47.956;7.830;2023-12-22T00:21:19;9.60;99.90
2729;DHT22;1372;47.956;7.830;2023-12-22T00:23:48;9.70;99.90
2729;DHT22;1372;47.956;7.830;2023-12-22T00:26:17;9.70;99.90
2729;DHT22;1372;47.956;7.830;2023-12-22T00:28:49;9.70;99.90
2729;DHT22;1372;47.956;7.830;2023-12-22T00:31:18;9.70;99.90
2729;DHT22;1372;47.956;7.830;2023-12-22T00:33:47;9.70;99.90
2729;DHT22;1372;47.956;7.830;2023-12-22T00:36:16;9.70;99.90
2729;DHT22;1372;47.956;7.830;2023-12-22T00:38:45;9.60;99.90
2729;DHT22;1372;47.956;7.830;2023-12-22T00:41:16;9.60;99.90
2729;DHT22;1372;47.956;7.830;2023-12-22T00:43:45;9.60;99.90
2729;DHT22;1372;47.956;7.830;2023-12-22T00:46:15;9.60;99.90
2729;DHT22;1372;47.956;7.830;2023-12-22T00:48:44;9.50;99.90
2729;DHT22;1372;47.956;7.830;2023-12-22T00:51:13;9.50;99.90
2729;DHT22;1372;47.956;7.830;2023-12-22T00:53:43;9.40;99.90
2729;DHT22;1372;47.956;7.830;2023-12-22T00:56:17;9.40;99.90
2729;DHT22;1372;47.956;7.830;2023-12-22T00:58:48;9.30;99.90
2729;DHT22;1372;47.956;7.830;2023-12-22T01:01:28;9.30;99.90
2729;DHT22;1372;47.956;7.830;2023-12-22T01:03:58;9.40;99.90
2729;DHT22;1372;47.956;7.830;2023-12-22T01:06:26;9.40;99.90
2729;DHT22;1372;47.956;7.830;2023-12-22T01:08:57;9.30;99.90
2729;DHT22;1372;47.956;7.830;2023-12-22T01:11:26;9.30;99.90
2729;DHT22;1372;47.956;7.830;2023-12-22T01:13:58;9.20;99.90
2729;DHT22;1372;47.956;7.830;2023-12-22T01:16:28;9.20;99.90
2729;DHT22;1372;47.956;7.830;2023-12-22T01:18:57;9.20;99.90
2729;DHT22;1372;47.956;7.830;2023-12-22T01:21:25;9.10;99.90
2729;DHT22;1372;47.956;7.830;2023-12-22T01:23:54;9.20;99.90
2729;DHT22;1372;47.956;7.830;2023-12-22T01:26:23;9.30;99.90
2729;DHT22;1372;47.956;7.830;2023-12-22T01:28:55;9.30;99.90
2729;DHT22;1372;47.956;7.830;2023-12-22T01:31:23;9.20;99.90
2729;DHT22;1372;47.956;7.830;2023-12-22T01:33:54;9.20;99.90
2729;DHT22;1372;47.956;7.830;2023-12-22T01:36:23;9.20;99.90
2729;DHT22;1372;47.956;7.830;2023-12-22T01:38:52;9.20;99.90
2729;DHT22;1372;47.956;7.830;2023-12-22T01:41:20;9.20;99.90
2729;DHT22;1372;47.956;7.830;2023-12-22T01:43:49;9.20;99.90
2729;DHT22;1372;47.956;7.830;2023-12-22T01:46:18;9.20;99.90
2729;DHT22;1372;47.956;7.830;2023-12-22T01:48:47;9.20;99.90
2729;DHT22;1372;47.956;7.830;2023-12-22T01:51:20;9.30;99.90
2729;DHT22;1372;47.956;7.830;2023-12-22T01:53:51;9.50;99.90
2729;DHT22;1372;47.956;7.830;2023-12-22T01:56:20;9.40;99.90
2729;DHT22;1372;47.956;7.830;2023-12-22T01:58:53;9.50;99.90
2729;DHT22;1372;47.956;7.830;2023-12-22T02:01:26;9.60;99.90
2729;DHT22;1372;47.956;7.830;2023-12-22T02:03:57;9.70;99.90
2729;DHT22;1372;47.956;7.830;2023-12-22T02:06:30;9.60;99.90
2729;DHT22;1372;47.956;7.830;2023-12-22T02:08:59;9.60;99.90
2729;DHT22;1372;47.956;7.830;2023-12-22T02:11:28;9.60;99.90
2729;DHT22;1372;47.956;7.830;2023-12-22T02:13:57;9.60;99.90
2729;DHT22;1372;47.956;7.830;2023-12-22T02:16:32;9.60;99.90
2729;DHT22;1372;47.956;7.830;2023-12-22T02:19:15;9.60;99.90
2729;DHT22;1372;47.956;7.830;2023-12-22T02:22:02;9.50;99.90
2729;DHT22;1372;47.956;7.830;2023-12-22T02:24:36;9.40;99.90
2729;DHT22;1372;47.956;7.830;2023-12-22T02:27:06;9.40;99.90
2729;DHT22;1372;47.956;7.830;2023-12-22T02:29:48;9.30;99.90
2729;DHT22;1372;47.956;7.830;2023-12-22T02:32:25;9.40;99.90
2729;DHT22;1372;47.956;7.830;2023-12-22T02:34:56;9.30;99.90
2729;DHT22;1372;47.956;7.830;2023-12-22T02:37:27;9.40;99.90
2729;DHT22;1372;47.956;7.830;2023-12-22T02:40:00;9.40;99.90
2729;DHT22;1372;47.956;7.830;2023-12-22T02:42:30;9.40;99.90
2729;DHT22;1372;47.956;7.830;2023-12-22T02:45:00;9.30;99.90
2729;DHT22;1372;47.956;7.830;2023-12-22T02:47:28;9.40;99.90
2729;DHT22;1372;47.956;7.830;2023-12-22T02:49:59;9.40;99.90
2729;DHT22;1372;47.956;7.830;2023-12-22T02:52:28;9.40;99.90
2729;DHT22;1372;47.956;7.830;2023-12-22T02:55:00;9.30;99.90
2729;DHT22;1372;47.956;7.830;2023-12-22T02:57:29;9.30;99.90
2729;DHT22;1372;47.956;7.830;2023-12-22T03:00:00;9.30;99.90
2729;DHT22;1372;47.956;7.830;2023-12-22T03:02:29;9.40;99.90
2729;DHT22;1372;47.956;7.830;2023-12-22T03:04:58;9.20;99.90
2729;DHT22;1372;47.956;7.830;2023-12-22T03:07:27;9.10;99.90
2729;DHT22;1372;47.956;7.830;2023-12-22T03:09:56;9.10;99.90
2729;DHT22;1372;47.956;7.830;2023-12-22T03:12:26;9.20;99.90
2729;DHT22;1372;47.956;7.830;2023-12-22T03:14:55;9.20;99.90
2729;DHT22;1372;47.956;7.830;2023-12-22T03:17:24;9.20;99.90
2729;DHT22;1372;47.956;7.830;2023-12-22T03:19:55;9.20;99.90
2729;DHT22;1372;47.956;7.830;2023-12-22T03:22:24;9.20;99.90
2729;DHT22;1372;47.956;7.830;2023-12-22T03:24:52;9.20;99.90
2729;DHT22;1372;47.956;7.830;2023-12-22T03:27:21;9.20;99.90
2729;DHT22;1372;47.956;7.830;2023-12-22T03:29:53;9.20;99.90
2729;DHT22;1372;47.956;7.830;2023-12-22T03:32:22;9.20;99.90
2729;DHT22;1372;47.956;7.830;2023-12-22T03:34:50;9.10;99.90
2729;DHT22;1372;47.956;7.830;2023-12-22T03:37:19;9.10;99.90
2729;DHT22;1372;47.956;7.830;2023-12-22T03:39:50;9.10;99.90
2729;DHT22;1372;47.956;7.830;2023-12-22T03:42:19;9.10;99.90
2729;DHT22;1372;47.956;7.830;2023-12-22T03:44:47;9.10;99.90
2729;DHT22;1372;47.956;7.830;2023-12-22T03:47:17;9.10;99.90
2729;DHT22;1372;47.956;7.830;2023-12-22T03:49:46;9.10;99.90
2729;DHT22;1372;47.956;7.830;2023-12-22T03:52:14;9.10;99.90
2729;DHT22;1372;47.956;7.830;2023-12-22T03:54:45;9.10;99.90
2729;DHT22;1372;47.956;7.830;2023-12-22T03:57:14;9.00;99.90
2729;DHT22;1372;47.956;7.830;2023-12-22T03:59:46;8.90;99.90
2729;DHT22;1372;47.956;7.830;2023-12-22T04:02:14;8.90;99.90
2729;DHT22;1372;47.956;7.830;2023-12-22T04:04:44;9.00;99.90
2729;DHT22;1372;47.956;7.830;2023-12-22T04:07:13;9.00;99.90
2729;DHT22;1372;47.956;7.830;2023-12-22T04:09:42;8.90;99.90
2729;DHT22;1372;47.956;7.830;2023-12-22T04:12:11;8.90;99.90
2729;DHT22;1372;47.956;7.830;2023-12-22T04:14:40;8.90;99.90
2729;DHT22;1372;47.956;7.830;2023-12-22T04:17:11;8.80;99.90
2729;DHT22;1372;47.956;7.830;2023-12-22T04:19:39;8.80;99.90
2729;DHT22;1372;47.956;7.830;2023-12-22T04:22:10;8.90;99.90
2729;DHT22;1372;47.956;7.830;2023-12-22T04:24:38;8.90;99.90
2729;DHT22;1372;47.956;7.830;2023-12-22T04:27:07;8.90;99.90
2729;DHT22;1372;47.956;7.830;2023-12-22T04:29:36;9.00;99.90
2729;DHT22;1372;47.956;7.830;2023-12-22T04:32:05;9.00;99.90
2729;DHT22;1372;47.956;7.830;2023-12-22T04:34:34;8.90;99.90
2729;DHT22;1372;47.956;7.830;2023-12-22T04:37:05;8.90;99.90
2729;DHT22;1372;47.956;7.830;2023-12-22T04:39:35;8.80;99.90
2729;DHT22;1372;47.956;7.830;2023-12-22T04:42:04;8.90;99.90
2729;DHT22;1372;47.956;7.830;2023-12-22T04:44:32;8.80;99.90
2729;DHT22;1372;47.956;7.830;2023-12-22T04:47:04;8.80;99.90
2729;DHT22;1372;47.956;7.830;2023-12-22T04:49:33;8.70;99.90
2729;DHT22;1372;47.956;7.830;2023-12-22T04:52:02;8.70;99.90
2729;DHT22;1372;47.956;7.830;2023-12-22T04:54:31;8.70;99.90
2729;DHT22;1372;47.956;7.830;2023-12-22T04:57:01;8.60;99.90
2729;DHT22;1372;47.956;7.830;2023-12-22T04:59:30;8.60;99.90
2729;DHT22;1372;47.956;7.830;2023-12-22T05:01:59;8.60;99.90
2729;DHT22;1372;47.956;7.830;2023-12-22T05:04:28;8.70;99.90
2729;DHT22;1372;47.956;7.830;2023-12-22T05:06:57;8.60;99.90
2729;DHT22;1372;47.956;7.830;2023-12-22T05:09:26;8.50;99.90
2729;DHT22;1372;47.956;7.830;2023-12-22T05:11:55;8.60;99.90
2729;DHT22;1372;47.956;7.830;2023-12-22T05:14:28;8.50;99.90
2729;DHT22;1372;47.956;7.830;2023-12-22T05:16:56;8.60;99.90
2729;DHT22;1372;47.956;7.830;2023-12-22T05:19:28;8.50;99.90
2729;DHT22;1372;47.956;7.830;2023-12-22T05:21:56;8.60;99.90
2729;DHT22;1372;47.956;7.830;2023-12-22T05:24:26;8.60;99.90
2729;DHT22;1372;47.956;7.830;2023-12-22T05:26:55;8.60;99.90
2729;DHT22;1372;47.956;7.830;2023-12-22T05:29:28;8.60;99.90
2729;DHT22;1372;47.956;7.830;2023-12-22T05:31:57;8.60;99.90
2729;DHT22;1372;47.956;7.830;2023-12-22T05:34:25;8.60;99.90
2729;DHT22;1372;47.956;7.830;2023-12-22T05:36:54;8.50;99.90
2729;DHT22;1372;47.956;7.830;2023-12-22T05:39:23;8.60;99.90
2729;DHT22;1372;47.956;7.830;2023-12-22T05:41:52;8.60;99.90
2729;DHT22;1372;47.956;7.830;2023-12-22T05:44:20;8.50;99.90
2729;DHT22;1372;47.956;7.830;2023-12-22T05:46:52;8.50;99.90
2729;DHT22;1372;47.956;7.830;2023-12-22T05:49:21;8.50;99.90
2729;DHT22;1372;47.956;7.830;2023-12-22T05:51:53;8.50;99.90
2729;DHT22;1372;47.956;7.830;2023-12-22T05:54:22;8.50;99.90
2729;DHT22;1372;47.956;7.830;2023-12-22T05:56:52;8.50;99.90
2729;DHT22;1372;47.956;7.830;2023-12-22T05:59:22;8.50;99.90
2729;DHT22;1372;47.956;7.830;2023-12-22T06:01:54;8.50;99.90
2729;DHT22;1372;47.956;7.830;2023-12-22T06:04:23;8.50;99.90
2729;DHT22;1372;47.956;7.830;2023-12-22T06:06:52;8.40;99.90
2729;DHT22;1372;47.956;7.830;2023-12-22T06:09:21;8.50;99.90
2729;DHT22;1372;47.956;7.830;2023-12-22T06:11:50;8.50;99.90
2729;DHT22;1372;47.956;7.830;2023-12-22T06:14:19;8.50;99.90
2729;DHT22;1372;47.956;7.830;2023-12-22T06:16:50;8.50;99.90
2729;DHT22;1372;47.956;7.830;2023-12-22T06:19:22;8.60;99.90
2729;DHT22;1372;47.956;7.830;2023-12-22T06:21:52;8.60;99.90
2729;DHT22;1372;47.956;7.830;2023-12-22T06:24:21;8.60;99.90
2729;DHT22;1372;47.956;7.830;2023-12-22T06:26:52;8.50;99.90
2729;DHT22;1372;47.956;7.830;2023-12-22T06:29:23;8.50;99.90
2729;DHT22;1372;47.956;7.830;2023-12-22T06:31:54;8.60;99.90
2729;DHT22;1372;47.956;7.830;2023-12-22T06:34:24;8.50;99.90
2729;DHT22;1372;47.956;7.830;2023-12-22T06:36:54;8.60;99.90
2729;DHT22;1372;47.956;7.830;2023-12-22T06:39:23;8.60;99.90
2729;DHT22;1372;47.956;7.830;2023-12-22T06:41:51;8.60;99.90
2729;DHT22;1372;47.956;7.830;2023-12-22T06:44:20;8.60;99.90
2729;DHT22;1372;47.956;7.830;2023-12-22T06:46:49;8.60;99.90
2729;DHT22;1372;47.956;7.830;2023-12-22T06:49:18;8.60;99.90
2729;DHT22;1372;47.956;7.830;2023-12-22T06:51:48;8.60;99.90
2729;DHT22;1372;47.956;7.830;2023-12-22T06:54:19;8.50;99.90
2729;DHT22;1372;47.956;7.830;2023-12-22T06:56:49;8.50;99.90
2729;DHT22;1372;47.956;7.830;2023-12-22T06:59:18;8.50;99.90
2729;DHT22;1372;47.956;7.830;2023-12-22T07:01:48;8.60;99.90
2729;DHT22;1372;47.956;7.830;2023-12-22T07:04:22;8.60;99.90
2729;DHT22;1372;47.956;7.830;2023-12-22T07:06:52;8.50;99.90
2729;DHT22;1372;47.956;7.830;2023-12-22T07:09:33;8.50;99.90
2729;DHT22;1372;47.956;7.830;2023-12-22T07:12:02;8.60;99.90
2729;DHT22;1372;47.956;7.830;2023-12-22T07:14:31;8.60;99.90
2729;DHT22;1372;47.956;7.830;2023-12-22T07:17:01;8.60;99.90
2729;DHT22;1372;47.956;7.830;2023-12-22T07:19:30;8.50;99.90
2729;DHT22;1372;47.956;7.830;2023-12-22T07:22:00;8.60;99.90
2729;DHT22;1372;47.956;7.830;2023-12-22T07:24:31;8.60;99.90
2729;DHT22;1372;47.956;7.830;2023-12-22T07:27:00;8.70;99.90
2729;DHT22;1372;47.956;7.830;2023-12-22T07:29:29;8.60;99.90
2729;DHT22;1372;47.956;7.830;2023-12-22T07:31:57;8.60;99.90
2729;DHT22;1372;47.956;7.830;2023-12-22T07:34:29;8.60;99.90
2729;DHT22;1372;47.956;7.830;2023-12-22T07:37:02;8.70;99.90
2729;DHT22;1372;47.956;7.830;2023-12-22T07:39:32;8.70;99.90
2729;DHT22;1372;47.956;7.830;2023-12-22T07:42:01;8.80;99.90
2729;DHT22;1372;47.956;7.830;2023-12-22T07:44:30;8.70;99.90
2729;DHT22;1372;47.956;7.830;2023-12-22T07:47:00;8.60;99.90
2729;DHT22;1372;47.956;7.830;2023-12-22T07:49:29;8.70;99.90
2729;DHT22;1372;47.956;7.830;2023-12-22T07:51:59;8.60;99.90
2729;DHT22;1372;47.956;7.830;2023-12-22T07:54:30;8.60;99.90
2729;DHT22;1372;47.956;7.830;2023-12-22T07:56:59;8.60;99.90
2729;DHT22;1372;47.956;7.830;2023-12-22T07:59:30;8.60;99.90
2729;DHT22;1372;47.956;7.830;2023-12-22T08:01:59;8.60;99.90
2729;DHT22;1372;47.956;7.830;2023-12-22T08:04:28;8.50;99.90
2729;DHT22;1372;47.956;7.830;2023-12-22T08:06:57;8.50;99.90
2729;DHT22;1372;47.956;7.830;2023-12-22T08:09:26;8.50;99.90
2729;DHT22;1372;47.956;7.830;2023-12-22T08:11:59;8.50;99.90
2729;DHT22;1372;47.956;7.830;2023-12-22T08:14:29;8.60;99.90
2729;DHT22;1372;47.956;7.830;2023-12-22T08:16:58;8.60;99.90
2729;DHT22;1372;47.956;7.830;2023-12-22T08:19:26;8.60;99.90
2729;DHT22;1372;47.956;7.830;2023-12-22T08:21:57;8.70;99.90
2729;DHT22;1372;47.956;7.830;2023-12-22T08:24:27;8.70;99.90
2729;DHT22;1372;47.956;7.830;2023-12-22T08:26:56;8.70;99.90
2729;DHT22;1372;47.956;7.830;2023-12-22T08:29:26;8.70;99.90
2729;DHT22;1372;47.956;7.830;2023-12-22T08:31:55;8.60;99.90
2729;DHT22;1372;47.956;7.830;2023-12-22T08:34:24;8.60;99.90
2729;DHT22;1372;47.956;7.830;2023-12-22T08:36:55;8.60;99.90
2729;DHT22;1372;47.956;7.830;2023-12-22T08:39:24;8.60;99.90
2729;DHT22;1372;47.956;7.830;2023-12-22T08:41:54;8.70;99.90
2729;DHT22;1372;47.956;7.830;2023-12-22T08:44:23;8.60;99.90
2729;DHT22;1372;47.956;7.830;2023-12-22T08:46:53;8.70;99.90
2729;DHT22;1372;47.956;7.830;2023-12-22T08:49:22;8.70;99.90
2729;DHT22;1372;47.956;7.830;2023-12-22T08:51:51;8.60;99.90
2729;DHT22;1372;47.956;7.830;2023-12-22T08:54:19;8.70;99.90
2729;DHT22;1372;47.956;7.830;2023-12-22T08:56:48;8.70;99.90
2729;DHT22;1372;47.956;7.830;2023-12-22T08:59:17;8.70;99.90
2729;DHT22;1372;47.956;7.830;2023-12-22T09:01:47;8.70;99.90
2729;DHT22;1372;47.956;7.830;2023-12-22T09:04:17;8.70;99.90
2729;DHT22;1372;47.956;7.830;2023-12-22T09:06:52;8.60;99.90
2729;DHT22;1372;47.956;7.830;2023-12-22T09:09:20;8.60;99.90
2729;DHT22;1372;47.956;7.830;2023-12-22T09:11:51;8.50;99.90
2729;DHT22;1372;47.956;7.830;2023-12-22T09:14:20;8.50;99.90
2729;DHT22;1372;47.956;7.830;2023-12-22T09:16:49;8.50;99.90
2729;DHT22;1372;47.956;7.830;2023-12-22T09:19:20;8.40;99.90
2729;DHT22;1372;47.956;7.830;2023-12-22T09:21:50;8.40;99.90
2729;DHT22;1372;47.956;7.830;2023-12-22T09:24:19;8.30;99.90
2729;DHT22;1372;47.956;7.830;2023-12-22T09:26:48;8.40;99.90
2729;DHT22;1372;47.956;7.830;2023-12-22T09:29:18;8.40;99.90
2729;DHT22;1372;47.956;7.830;2023-12-22T09:31:48;8.30;99.90
2729;DHT22;1372;47.956;7.830;2023-12-22T09:34:18;8.40;99.90
2729;DHT22;1372;47.956;7.830;2023-12-22T09:36:48;8.50;99.90
2729;DHT22;1372;47.956;7.830;2023-12-22T09:39:19;8.40;99.90
2729;DHT22;1372;47.956;7.830;2023-12-22T09:41:48;8.50;99.90
2729;DHT22;1372;47.956;7.830;2023-12-22T09:44:19;8.50;99.90
2729;DHT22;1372;47.956;7.830;2023-12-22T09:46:50;8.50;99.90
2729;DHT22;1372;47.956;7.830;2023-12-22T09:49:21;8.50;99.90
2729;DHT22;1372;47.956;7.830;2023-12-22T09:51:50;8.60;99.90
2729;DHT22;1372;47.956;7.830;2023-12-22T09:54:20;8.60;99.90
2729;DHT22;1372;47.956;7.830;2023-12-22T09:56:51;8.60;99.90
2729;DHT22;1372;47.956;7.830;2023-12-22T09:59:21;8.70;99.90
2729;DHT22;1372;47.956;7.830;2023-12-22T10:01:53;8.70;99.90
2729;DHT22;1372;47.956;7.830;2023-12-22T10:04:24;8.70;99.90
2729;DHT22;1372;47.956;7.830;2023-12-22T10:06:58;8.70;99.90
2729;DHT22;1372;47.956;7.830;2023-12-22T10:09:28;8.70;99.90
2729;DHT22;1372;47.956;7.830;2023-12-22T10:11:58;8.80;99.90
2729;DHT22;1372;47.956;7.830;2023-12-22T10:14:28;8.80;99.90
2729;DHT22;1372;47.956;7.830;2023-12-22T10:16:58;8.80;99.90
2729;DHT22;1372;47.956;7.830;2023-12-22T10:19:28;8.80;99.90
2729;DHT22;1372;47.956;7.830;2023-12-22T10:21:57;8.70;99.90
2729;DHT22;1372;47.956;7.830;2023-12-22T10:24:39;8.70;99.90
2729;DHT22;1372;47.956;7.830;2023-12-22T10:27:11;8.70;99.90
2729;DHT22;1372;47.956;7.830;2023-12-22T10:29:42;8.80;99.90
2729;DHT22;1372;47.956;7.830;2023-12-22T10:32:10;8.80;99.90
2729;DHT22;1372;47.956;7.830;2023-12-22T10:34:41;8.70;99.90
2729;DHT22;1372;47.956;7.830;2023-12-22T10:37:11;8.80;99.90
2729;DHT22;1372;47.956;7.830;2023-12-22T10:39:41;8.80;99.90
2729;DHT22;1372;47.956;7.830;2023-12-22T10:42:10;8.80;99.90
2729;DHT22;1372;47.956;7.830;2023-12-22T10:44:41;8.90;99.90
2729;DHT22;1372;47.956;7.830;2023-12-22T10:47:10;8.90;99.90
2729;DHT22;1372;47.956;7.830;2023-12-22T10:49:40;9.00;99.90
2729;DHT22;1372;47.956;7.830;2023-12-22T10:52:15;9.00;99.90
2729;DHT22;1372;47.956;7.830;2023-12-22T10:54:45;9.00;99.90
2729;DHT22;1372;47.956;7.830;2023-12-22T10:57:17;8.90;99.90
2729;DHT22;1372;47.956;7.830;2023-12-22T10:59:47;8.80;99.90
2729;DHT22;1372;47.956;7.830;2023-12-22T11:02:22;8.90;99.90
2729;DHT22;1372;47.956;7.830;2023-12-22T11:05:00;8.90;99.90
2729;DHT22;1372;47.956;7.830;2023-12-22T11:07:33;8.90;99.90
2729;DHT22;1372;47.956;7.830;2023-12-22T11:10:05;9.00;99.90
2729;DHT22;1372;47.956;7.830;2023-12-22T11:12:38;9.00;99.90
2729;DHT22;1372;47.956;7.830;2023-12-22T11:15:10;9.00;99.90
2729;DHT22;1372;47.956;7.830;2023-12-22T11:17:42;9.00;99.90
2729;DHT22;1372;47.956;7.830;2023-12-22T11:20:13;9.00;99.90
2729;DHT22;1372;47.956;7.830;2023-12-22T11:22:48;9.00;99.90
2729;DHT22;1372;47.956;7.830;2023-12-22T11:25:18;9.10;99.90
2729;DHT22;1372;47.956;7.830;2023-12-22T11:27:48;9.10;99.90
2729;DHT22;1372;47.956;7.830;2023-12-22T11:30:19;9.00;99.90
2729;DHT22;1372;47.956;7.830;2023-12-22T11:33:05;9.10;99.90
2729;DHT22;1372;47.956;7.830;2023-12-22T11:35:36;9.10;99.90
2729;DHT22;1372;47.956;7.830;2023-12-22T11:38:08;9.20;99.90
2729;DHT22;1372;47.956;7.830;2023-12-22T11:40:39;9.10;99.90
2729;DHT22;1372;47.956;7.830;2023-12-22T11:43:08;9.10;99.90
2729;DHT22;1372;47.956;7.830;2023-12-22T11:45:37;9.10;99.90
2729;DHT22;1372;47.956;7.830;2023-12-22T11:48:08;9.10;99.90
2729;DHT22;1372;47.956;7.830;2023-12-22T11:50:39;9.20;99.90
2729;DHT22;1372;47.956;7.830;2023-12-22T11:53:21;9.10;99.90
2729;DHT22;1372;47.956;7.830;2023-12-22T11:55:57;9.10;99.90
2729;DHT22;1372;47.956;7.830;2023-12-22T11:58:39;9.20;99.90
2729;DHT22;1372;47.956;7.830;2023-12-22T12:01:09;9.30;99.90
2729;DHT22;1372;47.956;7.830;2023-12-22T12:03:42;9.30;99.90
2729;DHT22;1372;47.956;7.830;2023-12-22T12:06:30;9.30;99.90
2729;DHT22;1372;47.956;7.830;2023-12-22T12:09:01;9.30;99.90
2729;DHT22;1372;47.956;7.830;2023-12-22T12:12:09;9.20;99.90
2729;DHT22;1372;47.956;7.830;2023-12-22T12:14:41;9.30;99.90
2729;DHT22;1372;47.956;7.830;2023-12-22T12:17:15;9.20;99.90
2729;DHT22;1372;47.956;7.830;2023-12-22T12:19:47;9.20;99.90
2729;DHT22;1372;47.956;7.830;2023-12-22T12:22:18;9.20;99.90
2729;DHT22;1372;47.956;7.830;2023-12-22T12:24:54;9.30;99.90
2729;DHT22;1372;47.956;7.830;2023-12-22T12:27:24;9.20;99.90
2729;DHT22;1372;47.956;7.830;2023-12-22T12:29:55;9.30;99.90
2729;DHT22;1372;47.956;7.830;2023-12-22T12:32:26;9.20;99.90
2729;DHT22;1372;47.956;7.830;2023-12-22T12:34:59;9.30;99.90
2729;DHT22;1372;47.956;7.830;2023-12-22T12:37:56;9.40;99.90
2729;DHT22;1372;47.956;7.830;2023-12-22T12:40:46;9.40;99.90
2729;DHT22;1372;47.956;7.830;2023-12-22T12:43:17;9.30;99.90
2729;DHT22;1372;47.956;7.830;2023-12-22T12:45:46;9.40;99.90
2729;DHT22;1372;47.956;7.830;2023-12-22T12:48:16;9.40;99.90
2729;DHT22;1372;47.956;7.830;2023-12-22T12:50:46;9.40;99.90
2729;DHT22;1372;47.956;7.830;2023-12-22T12:53:16;9.40;99.90
2729;DHT22;1372;47.956;7.830;2023-12-22T12:55:45;9.40;99.90
2729;DHT22;1372;47.956;7.830;2023-12-22T12:58:14;9.50;99.90
2729;DHT22;1372;47.956;7.830;2023-12-22T13:00:43;9.50;99.90
2729;DHT22;1372;47.956;7.830;2023-12-22T13:03:14;9.50;99.90
2729;DHT22;1372;47.956;7.830;2023-12-22T13:05:43;9.50;99.90
2729;DHT22;1372;47.956;7.830;2023-12-22T13:08:13;9.50;99.90
2729;DHT22;1372;47.956;7.830;2023-12-22T13:10:44;9.50;99.90
2729;DHT22;1372;47.956;7.830;2023-12-22T13:13:13;9.50;99.90
2729;DHT22;1372;47.956;7.830;2023-12-22T13:15:41;9.50;99.90
2729;DHT22;1372;47.956;7.830;2023-12-22T13:18:11;9.50;99.90
2729;DHT22;1372;47.956;7.830;2023-12-22T13:20:42;9.60;99.90
2729;DHT22;1372;47.956;7.830;2023-12-22T13:23:11;9.50;99.90
2729;DHT22;1372;47.956;7.830;2023-12-22T13:25:40;9.40;99.90
2729;DHT22;1372;47.956;7.830;2023-12-22T13:28:11;9.50;99.90
2729;DHT22;1372;47.956;7.830;2023-12-22T13:30:40;9.40;99.90
2729;DHT22;1372;47.956;7.830;2023-12-22T13:33:09;9.40;99.90
2729;DHT22;1372;47.956;7.830;2023-12-22T13:35:38;9.40;99.90
2729;DHT22;1372;47.956;7.830;2023-12-22T13:38:09;9.40;99.90
2729;DHT22;1372;47.956;7.830;2023-12-22T13:40:39;9.50;99.90
2729;DHT22;1372;47.956;7.830;2023-12-22T13:43:14;9.50;99.90
2729;DHT22;1372;47.956;7.830;2023-12-22T13:45:43;9.50;99.90
2729;DHT22;1372;47.956;7.830;2023-12-22T13:48:18;9.50;99.90
2729;DHT22;1372;47.956;7.830;2023-12-22T13:50:57;9.40;99.90
2729;DHT22;1372;47.956;7.830;2023-12-22T13:53:26;9.50;99.90
2729;DHT22;1372;47.956;7.830;2023-12-22T13:55:57;9.50;99.90
2729;DHT22;1372;47.956;7.830;2023-12-22T13:58:27;9.40;99.90
2729;DHT22;1372;47.956;7.830;2023-12-22T14:00:56;9.50;99.90
2729;DHT22;1372;47.956;7.830;2023-12-22T14:03:25;9.40;99.90
2729;DHT22;1372;47.956;7.830;2023-12-22T14:05:54;9.50;99.90
2729;DHT22;1372;47.956;7.830;2023-12-22T14:08:23;9.50;99.90
2729;DHT22;1372;47.956;7.830;2023-12-22T14:10:52;9.50;99.90
2729;DHT22;1372;47.956;7.830;2023-12-22T14:13:22;9.50;99.90
2729;DHT22;1372;47.956;7.830;2023-12-22T14:15:53;9.50;99.90
2729;DHT22;1372;47.956;7.830;2023-12-22T14:18:22;9.50;99.90
2729;DHT22;1372;47.956;7.830;2023-12-22T14:20:51;9.60;99.90
2729;DHT22;1372;47.956;7.830;2023-12-22T14:23:20;9.60;99.90
2729;DHT22;1372;47.956;7.830;2023-12-22T14:25:49;9.60;99.90
2729;DHT22;1372;47.956;7.830;2023-12-22T14:28:19;9.60;99.90
2729;DHT22;1372;47.956;7.830;2023-12-22T14:30:50;9.50;99.90
2729;DHT22;1372;47.956;7.830;2023-12-22T14:33:19;9.50;99.90
2729;DHT22;1372;47.956;7.830;2023-12-22T14:35:48;9.50;99.90
2729;DHT22;1372;47.956;7.830;2023-12-22T14:38:17;9.50;99.90
2729;DHT22;1372;47.956;7.830;2023-12-22T14:40:46;9.60;99.90
2729;DHT22;1372;47.956;7.830;2023-12-22T14:43:15;9.60;99.90
2729;DHT22;1372;47.956;7.830;2023-12-22T14:45:45;9.50;99.90
2729;DHT22;1372;47.956;7.830;2023-12-22T14:48:16;9.50;99.90
2729;DHT22;1372;47.956;7.830;2023-12-22T14:50:45;9.50;99.90
2729;DHT22;1372;47.956;7.830;2023-12-22T14:53:14;9.50;99.90
2729;DHT22;1372;47.956;7.830;2023-12-22T14:55:43;9.50;99.90
2729;DHT22;1372;47.956;7.830;2023-12-22T14:58:11;9.60;99.90
2729;DHT22;1372;47.956;7.830;2023-12-22T15:00:42;9.60;99.90
2729;DHT22;1372;47.956;7.830;2023-12-22T15:03:12;9.60;99.90
2729;DHT22;1372;47.956;7.830;2023-12-22T15:05:41;9.50;99.90
2729;DHT22;1372;47.956;7.830;2023-12-22T15:08:10;9.50;99.90
2729;DHT22;1372;47.956;7.830;2023-12-22T15:10:41;9.50;99.90
2729;DHT22;1372;47.956;7.830;2023-12-22T15:13:10;9.50;99.90
2729;DHT22;1372;47.956;7.830;2023-12-22T15:15:39;9.50;99.90
2729;DHT22;1372;47.956;7.830;2023-12-22T15:18:08;9.50;99.90
2729;DHT22;1372;47.956;7.830;2023-12-22T15:20:39;9.50;99.90
2729;DHT22;1372;47.956;7.830;2023-12-22T15:23:08;9.50;99.90
2729;DHT22;1372;47.956;7.830;2023-12-22T15:25:37;9.50;99.90
2729;DHT22;1372;47.956;7.830;2023-12-22T15:28:06;9.50;99.90
2729;DHT22;1372;47.956;7.830;2023-12-22T15:30:35;9.50;99.90
2729;DHT22;1372;47.956;7.830;2023-12-22T15:33:04;9.50;99.90
2729;DHT22;1372;47.956;7.830;2023-12-22T15:35:34;9.60;99.90
2729;DHT22;1372;47.956;7.830;2023-12-22T15:38:04;9.60;99.90
2729;DHT22;1372;47.956;7.830;2023-12-22T15:40:33;9.50;99.90
2729;DHT22;1372;47.956;7.830;2023-12-22T15:43:05;9.50;99.90
2729;DHT22;1372;47.956;7.830;2023-12-22T15:45:37;9.40;99.90
2729;DHT22;1372;47.956;7.830;2023-12-22T15:48:08;9.40;99.90
2729;DHT22;1372;47.956;7.830;2023-12-22T15:50:37;9.50;99.90
2729;DHT22;1372;47.956;7.830;2023-12-22T15:53:08;9.50;99.90
2729;DHT22;1372;47.956;7.830;2023-12-22T15:55:37;9.50;99.90
2729;DHT22;1372;47.956;7.830;2023-12-22T15:58:06;9.50;99.90
2729;DHT22;1372;47.956;7.830;2023-12-22T16:00:35;9.60;99.90
2729;DHT22;1372;47.956;7.830;2023-12-22T16:03:07;9.50;99.90
2729;DHT22;1372;47.956;7.830;2023-12-22T16:05:37;9.50;99.90
2729;DHT22;1372;47.956;7.830;2023-12-22T16:08:08;9.40;99.90
2729;DHT22;1372;47.956;7.830;2023-12-22T16:10:37;9.50;99.90
2729;DHT22;1372;47.956;7.830;2023-12-22T16:13:06;9.50;99.90
2729;DHT22;1372;47.956;7.830;2023-12-22T16:15:38;9.60;99.90
2729;DHT22;1372;47.956;7.830;2023-12-22T16:18:09;9.60;99.90
2729;DHT22;1372;47.956;7.830;2023-12-22T16:20:38;9.60;99.90
2729;DHT22;1372;47.956;7.830;2023-12-22T16:23:09;9.60;99.90
2729;DHT22;1372;47.956;7.830;2023-12-22T16:25:39;9.60;99.90
2729;DHT22;1372;47.956;7.830;2023-12-22T16:28:08;9.70;99.90
2729;DHT22;1372;47.956;7.830;2023-12-22T16:30:37;9.60;99.90
2729;DHT22;1372;47.956;7.830;2023-12-22T16:33:05;9.60;99.90
2729;DHT22;1372;47.956;7.830;2023-12-22T16:35:34;9.60;99.90
2729;DHT22;1372;47.956;7.830;2023-12-22T16:38:04;9.60;99.90